Texas Logo

Lewisville, TX Single Family Real Estate Listings

289 Total Real Estate Listings * Click on table heading to sort
Date Posted Property Type Style Address Price Living Area Lot Size Price/Sq Ft.
2018-11-27 Single Family Traditional 180 Carrington Lane Lewisville, TX 75067 $335,927 2,895 sq. ft. 4,356 sq. ft. $116
2018-11-27 Single Family Traditional 224 Wallington Way Lewisville, TX 75067 $318,000 2,358 sq. ft. 3,920 sq. ft. $135
2018-11-27 Single Family Mediterranean 2615 Sir Gawain Lane Lewisville, TX 75056 $1,350,000 6,253 sq. ft. 19,602 sq. ft. $216
2018-11-27 Single Family Traditional 229 Carrington Lane Lewisville, TX 75067 $344,900 2,900 sq. ft. 3,920 sq. ft. $119
2018-11-27 Single Family Victorian 1617 Alpine Pass Lewisville, TX 75077 $275,000 2,600 sq. ft. 10,890 sq. ft. $106
2018-11-26 Single Family Traditional 1531 Camelia Drive Lewisville, TX 75067 $255,000 1,726 sq. ft. 6,970 sq. ft. $148
2018-11-25 Single Family Traditional 979 Downey Drive Lewisville, TX 75067 $260,000 1,818 sq. ft. 6,534 sq. ft. $143
2018-11-24 Single Family Traditional 218 Cielo Azure Lane Lewisville, TX 75067 $399,000 3,128 sq. ft. 6,970 sq. ft. $128
2018-11-23 Single Family Contemporary/Modern 804 Sylvan Creek Drive Lewisville, TX 75067 $262,000 1,779 sq. ft. 7,405 sq. ft. $147
2018-11-23 Single Family Traditional 2507 Lady Amide Lane Lewisville, TX 75056 $420,000 2,530 sq. ft. 4,356 sq. ft. $166
2018-11-21 Single Family 1309 Lake Falls Terrace Lewisville, TX 75056 $476,110 3,164 sq. ft. 6,098 sq. ft. $150
2018-11-21 Single Family Traditional 2502 Sir Tristram Lane Lewisville, TX 75056 $435,000 3,347 sq. ft. 8,276 sq. ft. $130
2018-11-21 Single Family Traditional 929 Springwood Drive Lewisville, TX 75067 $225,000 1,299 sq. ft. 7,405 sq. ft. $173
2018-11-20 Single Family Traditional 1325 Cedar Keys Drive Lewisville, TX 75067 $210,000 1,566 sq. ft. 6,970 sq. ft. $134
2018-11-19 Single Family Traditional 536 Rolling Ridge Drive Lewisville, TX 75067 $204,900 1,550 sq. ft. 10,019 sq. ft. $132
2018-11-17 Single Family Traditional 1403 Autumn Trail Lewisville, TX 75067 $337,000 2,211 sq. ft. 9,148 sq. ft. $152
2018-11-17 Single Family English; Traditional; Tudor 2334 Silver Table Drive Lewisville, TX 75056 $2,400,000 8,661 sq. ft. 20,909 sq. ft. $277
2018-11-17 Single Family Traditional 1713 Brookhollow Drive Lewisville, TX 75056 $485,000 3,711 sq. ft. 7,405 sq. ft. $131
2018-11-17 Single Family Traditional; Tudor 921 Beverly Court Lewisville, TX 75067 $400,000 4,394 sq. ft. 14,810 sq. ft. $91
2018-11-17 Single Family Traditional 2058 Biscayne Drive Lewisville, TX 75067 $259,900 1,787 sq. ft. 7,841 sq. ft. $145
2018-11-17 Single Family Traditional 248 Carrington Lane Lewisville, TX 75067 $313,500 2,268 sq. ft. 4,792 sq. ft. $138
2018-11-17 Single Family Craftsman 535 Cowan Avenue Lewisville, TX 75057 $240,000 2,258 sq. ft. 8,276 sq. ft. $106
2018-11-16 Single Family Traditional 1509 Snow Trail Lewisville, TX 75077 $300,000 2,027 sq. ft. 7,841 sq. ft. $148
2018-11-16 Single Family Traditional 1905 Hidden Trail Drive Lewisville, TX 75067 $260,000 2,314 sq. ft. 9,148 sq. ft. $112
2018-11-16 Single Family Ranch 1674 Autumn Breeze Lane Lewisville, TX 75077 $218,000 1,550 sq. ft. 7,841 sq. ft. $141
2018-11-16 Single Family 957 Lea Meadow Drive Lewisville, TX 75077 $285,000 1,960 sq. ft. 5,227 sq. ft. $145
2018-11-15 Single Family 1327 Maplewood Drive Lewisville, TX 75067 $215,000 1,245 sq. ft. 3,920 sq. ft. $173
2018-11-15 Single Family Traditional 1304 Winnipeg Drive Lewisville, TX 75077 $310,000 2,010 sq. ft. 8,276 sq. ft. $154
2018-11-15 Single Family Traditional 2542 Plumas Street Lewisville, TX 75056 $359,000 2,240 sq. ft. 1,742 sq. ft. $160
2018-11-15 Single Family Traditional 1327 Jasmine Drive Lewisville, TX 75077 $230,000 1,636 sq. ft. 4,356 sq. ft. $141
2018-11-14 Single Family 1122 Seneca Place Lewisville, TX 75067 $240,000 1,397 sq. ft. 5,663 sq. ft. $172
2018-11-14 Single Family Mediterranean 2708 King Arthur Boulevard Lewisville, TX 75056 $872,000 4,899 sq. ft. 20,473 sq. ft. $178
2018-11-14 Single Family Traditional 1530 Eagle Nest Pass Lewisville, TX 75077 $299,000 1,805 sq. ft. 8,712 sq. ft. $166
2018-11-14 Single Family Ranch 1530 Winter Park Lane Lewisville, TX 75077 $234,900 1,405 sq. ft. 8,712 sq. ft. $167
2018-11-13 Single Family 1409 College Parkway Lewisville, TX 75077 $299,900 2,148 sq. ft. 9,148 sq. ft. $140
2018-11-12 Single Family Traditional 1632 Juniper Lane Lewisville, TX 75077 $262,500 1,619 sq. ft. 7,841 sq. ft. $162
2018-11-12 Single Family 1124 Kelly Lane Lewisville, TX 75077 $320,000 2,639 sq. ft. 6,098 sq. ft. $121
2018-11-12 Single Family Traditional 342 Hickory Street Lewisville, TX 75057 $239,900 1,936 sq. ft. 10,890 sq. ft. $124
2018-11-10 Single Family 321 Ridgewood Drive Lewisville, TX 75067 $409,900 2,401 sq. ft. 6,970 sq. ft. $171
2018-11-10 Single Family Traditional 1920 Aspen Drive Lewisville, TX 75077 $267,500 1,772 sq. ft. 7,841 sq. ft. $151
2018-11-10 Single Family 2150 Swallow Lane Lewisville, TX 75077 $259,000 1,598 sq. ft. 8,712 sq. ft. $162
2018-11-10 Single Family Traditional 1422 Chinaberry Drive Lewisville, TX 75077 $279,500 3,009 sq. ft. 5,227 sq. ft. $93
2018-11-10 Single Family Contemporary/Modern; Craftsman; Traditional 337 Birch Street Lewisville, TX 75057 $275,000 2,124 sq. ft. 6,098 sq. ft. $129
2018-11-10 Single Family Craftsman 606 Hunters Glen Street Lewisville, TX 75067 $165,000 1,469 sq. ft. 4,792 sq. ft. $112
2018-11-09 Single Family Traditional 1718 Belltower Place Lewisville, TX 75067 $244,900 1,618 sq. ft. 8,712 sq. ft. $151
2018-11-09 Single Family Traditional 731 Dewberry Drive Lewisville, TX 75067 $219,900 1,161 sq. ft. 6,970 sq. ft. $189
2018-11-09 Single Family 605 Harvest Hill Street Lewisville, TX 75067 $192,500 1,314 sq. ft. 4,356 sq. ft. $146
2018-11-09 Single Family Traditional 1206 King Bors Lane Lewisville, TX 75056 $475,000 2,930 sq. ft. 9,583 sq. ft. $162
2018-11-09 Single Family Traditional 2737 Vista Bluff Boulevard Lewisville, TX 75067 $325,000 2,108 sq. ft. 6,970 sq. ft. $154
2018-11-09 Single Family Contemporary/Modern; Traditional 1412 Mayflower Lane Lewisville, TX 75077 $290,000 1,801 sq. ft. 6,534 sq. ft. $161
2018-11-08 Single Family Traditional 1536 Eagle Nest Pass Lewisville, TX 75077 $273,000 1,705 sq. ft. 7,841 sq. ft. $160
2018-11-08 Single Family 1320 Prairie Lake Court Lewisville, TX 75056 $518,085 3,240 sq. ft. 11,326 sq. ft. $160
2018-11-08 Single Family 100 Crimson Law Drive Lewisville, TX 75067 $435,110 3,122 sq. ft. 6,098 sq. ft. $139
2018-11-08 Single Family Traditional 1912 Campfire Court Lewisville, TX 75067 $285,000 2,421 sq. ft. 8,712 sq. ft. $118
2018-11-08 Single Family Traditional 1553 Glenmore Drive Lewisville, TX 75077 $265,000 1,974 sq. ft. 7,841 sq. ft. $134
2018-11-08 Single Family Traditional 2461 Sunderland Lane Lewisville, TX 75067 $318,000 2,358 sq. ft. 3,920 sq. ft. $135
2018-11-08 Single Family Traditional 1318 Overlook Drive Lewisville, TX 75067 $235,000 1,544 sq. ft. 3,920 sq. ft. $152
2018-11-07 Single Family Ranch; Traditional 2614 Avalon Drive Lewisville, TX 75056 $449,900 2,996 sq. ft. 11,761 sq. ft. $150
2018-11-07 Single Family Traditional 2603 Merlin Drive Lewisville, TX 75056 $529,999 3,762 sq. ft. 11,761 sq. ft. $141
2018-11-07 Single Family Traditional 1806 Cactus Circle Lewisville, TX 75077 $225,000 1,566 sq. ft. 4,356 sq. ft. $144
2018-11-07 Single Family A-Frame 1714 Clydesdale Drive Lewisville, TX 75067 $230,000 1,670 sq. ft. 7,405 sq. ft. $138
2018-11-07 Single Family Traditional 2210 Wren Lane Lewisville, TX 75077 $262,000 1,954 sq. ft. 8,276 sq. ft. $134
2018-11-07 Single Family Traditional 1602 Crosshaven Drive Lewisville, TX 75077 $265,000 1,954 sq. ft. 6,970 sq. ft. $136
2018-11-07 Single Family Traditional 1728 Shady Creek Drive Lewisville, TX 75067 $284,900 2,508 sq. ft. 5,227 sq. ft. $114
2018-11-07 Single Family Traditional 2001 Wolf Creek Pass Lewisville, TX 75077 $269,000 1,716 sq. ft. 11,326 sq. ft. $157
2018-11-06 Single Family Traditional 312 Parkwood Place Lewisville, TX 75067 $184,900 1,417 sq. ft. 7,841 sq. ft. $130
2018-11-06 Single Family Traditional 1121 Raleigh Drive Lewisville, TX 75077 $274,900 1,666 sq. ft. 6,970 sq. ft. $165
2018-11-06 Single Family Traditional 1020 Summit Park Lewisville, TX 75077 $274,900 2,228 sq. ft. 6,098 sq. ft. $123
2018-11-06 Single Family Traditional 2701 Calypso Lane Lewisville, TX 75067 $350,000 1,989 sq. ft. 6,098 sq. ft. $176
2018-11-05 Single Family 1214 Springwood Drive Lewisville, TX 75067 $165,000 1,279 sq. ft. 6,970 sq. ft. $129
2018-11-05 Single Family 402 121 Lewisville, TX 75057 $25,000 1,216 sq. ft. $21
2018-11-05 Single Family Traditional 2512 Brandon Drive Lewisville, TX 75056 $395,000 2,111 sq. ft. 6,534 sq. ft. $187
2018-11-05 Single Family Traditional 2074 Rushmore Court Lewisville, TX 75067 $295,000 2,498 sq. ft. 6,534 sq. ft. $118
2018-11-05 Single Family Traditional 2820 Merlins Rock Drive Lewisville, TX 75056 $1,250,000 4,880 sq. ft. 23,522 sq. ft. $256
2018-11-04 Single Family Traditional 1533 Parkside Trail Lewisville, TX 75077 $229,900 2,410 sq. ft. 10,019 sq. ft. $95
2018-11-03 Single Family Traditional 1457 Bregenz Lane Lewisville, TX 75067 $249,000 1,505 sq. ft. 4,792 sq. ft. $165
2018-11-03 Single Family Ranch 1704 Yellowstone Avenue Lewisville, TX 75077 $238,000 1,459 sq. ft. 4,792 sq. ft. $163
2018-11-02 Single Family Traditional 1727 Creekpoint Drive Lewisville, TX 75067 $239,900 1,698 sq. ft. 4,792 sq. ft. $141
2018-11-02 Single Family 1653 Shannon Drive Lewisville, TX 75077 $297,000 1,991 sq. ft. 8,712 sq. ft. $149
2018-11-02 Single Family Traditional 910 Witherby Lane Lewisville, TX 75067 $299,900 1,885 sq. ft. 5,663 sq. ft. $159
2018-11-02 Single Family Traditional 1108 King Mark Drive Lewisville, TX 75056 $1,275,000 5,363 sq. ft. 20,909 sq. ft. $238
2018-11-02 Single Family Traditional 1113 Courtney Lane Lewisville, TX 75077 $285,000 1,853 sq. ft. 6,098 sq. ft. $154
2018-11-01 Single Family 1107 Briarwood Drive Lewisville, TX 75067 $159,000 1,519 sq. ft. 6,970 sq. ft. $105
2018-11-01 Single Family Traditional 140 Chelsea Court Lewisville, TX 75067 $387,500 2,437 sq. ft. 6,970 sq. ft. $159
2018-11-01 Single Family Traditional 1514 Live Oak Drive Lewisville, TX 75067 $203,000 1,566 sq. ft. 8,276 sq. ft. $130
2018-11-01 Single Family 2030 San Marino Lane Lewisville, TX 75077 $329,500 2,040 sq. ft. 5,227 sq. ft. $162
2018-11-01 Single Family Traditional 753 Walnut Drive Lewisville, TX 75067 $250,000 2,232 sq. ft. 7,841 sq. ft. $112
2018-11-01 Single Family Traditional 1529 Snow Trail Lewisville, TX 75077 $249,900 2,052 sq. ft. 7,405 sq. ft. $122
2018-10-31 Single Family Traditional 2018 Cardinal Lane Lewisville, TX 75077 $279,900 2,604 sq. ft. 3,920 sq. ft. $107
2018-10-31 Single Family Traditional 1404 Ross Drive Lewisville, TX 75067 $259,900 1,770 sq. ft. 6,098 sq. ft. $147
2018-10-31 Single Family Traditional 218 Cowan Avenue Lewisville, TX 75057 $176,000 1,128 sq. ft. 10,019 sq. ft. $156
2018-10-28 Single Family 1200 Damsel Grey Trail Lewisville, TX 75056 $574,900 4,031 sq. ft. 8,276 sq. ft. $143
2018-10-28 Single Family Traditional 1405 Bregenz Lane Lewisville, TX 75067 $244,900 1,455 sq. ft. 4,792 sq. ft. $168
2018-10-26 Single Family 412 Kyle Lane Lewisville, TX 75067 $338,000 2,601 sq. ft. 6,970 sq. ft. $130
2018-10-26 Single Family Traditional 2321 Silver Table Drive Lewisville, TX 75056 $2,199,000 7,507 sq. ft. 20,473 sq. ft. $293
2018-10-26 Single Family Traditional 1014 Hillwood Drive Lewisville, TX 75067 $194,500 1,316 sq. ft. 7,405 sq. ft. $148
2018-10-26 Single Family 1320 Overlook Drive Lewisville, TX 75067 $235,000 1,630 sq. ft. 3,920 sq. ft. $144
2018-10-26 Single Family Ranch 1355 Beechwood Drive Lewisville, TX 75067 $215,000 1,572 sq. ft. 7,841 sq. ft. $137
2018-10-26 Single Family Traditional 1105 Timber Creek Drive Lewisville, TX 75067 $308,000 1,984 sq. ft. 9,148 sq. ft. $155
2018-10-25 Single Family 101 Crimson Law Drive Lewisville, TX 75067 $496,430 3,200 sq. ft. 5,663 sq. ft. $155
2018-10-25 Single Family Traditional 1338 Brazos Boulevard Lewisville, TX 75077 $227,900 1,500 sq. ft. 9,148 sq. ft. $152
2018-10-25 Single Family 1333 Summertime Trail Lewisville, TX 75067 $300,000 2,196 sq. ft. 8,276 sq. ft. $137
2018-10-25 Single Family 1710 Creekbend Drive Lewisville, TX 75067 $240,000 1,369 sq. ft. 3,485 sq. ft. $175
2018-10-25 Single Family Traditional 1804 Blair Oak Drive Lewisville, TX 75067 $235,000 1,439 sq. ft. 4,792 sq. ft. $163
2018-10-25 Single Family 2138 Goldfinch Drive Lewisville, TX 75077 $239,900 1,569 sq. ft. 9,583 sq. ft. $153
2018-10-25 Single Family 1032 Lady Lore Lane Lewisville, TX 75056 $524,900 3,310 sq. ft. 10,019 sq. ft. $159
2018-10-25 Single Family Traditional 320 Prairie Hill Trail Lewisville, TX 75056 $439,500 3,311 sq. ft. 10,019 sq. ft. $133
2018-10-25 Single Family 1112 Christopher Lane Lewisville, TX 75077 $272,900 1,942 sq. ft. 6,098 sq. ft. $141
2018-10-25 Single Family Traditional 1319 Saddleback Lane Lewisville, TX 75067 $249,900 1,758 sq. ft. 7,405 sq. ft. $142
2018-10-25 Single Family Traditional 2026 Feather Lane Lewisville, TX 75077 $173,000 1,114 sq. ft. 3,485 sq. ft. $155
2018-10-25 Single Family Traditional 1413 Crutchfield Lane Lewisville, TX 75077 $319,900 3,061 sq. ft. 7,405 sq. ft. $105
2018-10-24 Single Family Traditional 1729 Belltower Place Lewisville, TX 75067 $239,900 1,656 sq. ft. 7,405 sq. ft. $145
2018-10-23 Single Family Traditional 707 Marina Vista Drive Lewisville, TX 75056 $435,000 3,583 sq. ft. 8,712 sq. ft. $121
2018-10-23 Single Family Traditional 2007 Firewater Place Lewisville, TX 75067 $295,000 2,439 sq. ft. 5,663 sq. ft. $121
2018-10-23 Single Family Ranch 944 Elmwood Drive Lewisville, TX 75067 $184,900 1,279 sq. ft. 7,405 sq. ft. $145
2018-10-21 Single Family Traditional 216 Anna Avenue Lewisville, TX 75056 $419,000 2,906 sq. ft. 6,534 sq. ft. $144
2018-10-21 Single Family Ranch 937 Thompson Drive Lewisville, TX 75067 $239,900 1,724 sq. ft. 7,405 sq. ft. $139
2018-10-20 Single Family 2080 Vista Drive Lewisville, TX 75067 $234,900 1,441 sq. ft. 7,405 sq. ft. $163
2018-10-19 Single Family Traditional 1324 Pinehurst Drive Lewisville, TX 75077 $337,000 3,153 sq. ft. 6,534 sq. ft. $107
2018-10-19 Single Family Traditional 900 Birkshire Drive Lewisville, TX 75077 $319,900 3,009 sq. ft. 6,970 sq. ft. $106
2018-10-19 Single Family 460 Hayden Drive Lewisville, TX 75067 $299,000 2,671 sq. ft. 5,663 sq. ft. $112
2018-10-19 Single Family 204 Brutus Boulevard Lewisville, TX 75056 $460,000 3,288 sq. ft. 6,534 sq. ft. $140
2018-10-18 Single Family 1526 Summerwind Lane Lewisville, TX 75077 $265,000 1,450 sq. ft. 8,712 sq. ft. $183
2018-10-18 Single Family 1212 Lakefirth Path Lewisville, TX 75056 $385,510 2,255 sq. ft. 5,663 sq. ft. $171
2018-10-17 Single Family 1382 Clear Creek Drive Lewisville, TX 75067 $259,000 1,872 sq. ft. 9,148 sq. ft. $138
2018-10-17 Single Family 1510 Live Oak Drive Lewisville, TX 75067 $234,900 1,612 sq. ft. $146
2018-10-16 Single Family Traditional 2606 Avalon Drive Lewisville, TX 75056 $559,900 4,056 sq. ft. 11,761 sq. ft. $138
2018-10-16 Single Family Traditional 720 Price Drive Lewisville, TX 75067 $209,900 1,224 sq. ft. 6,970 sq. ft. $171
2018-10-15 Single Family 1034 Kingston Drive Lewisville, TX 75067 $215,000 1,680 sq. ft. 7,841 sq. ft. $128
2018-10-14 Single Family Traditional 823 Creekside Drive Lewisville, TX 75067 $184,900 1,673 sq. ft. 2,614 sq. ft. $111
2018-10-14 Single Family 728 Red Oak Drive Lewisville, TX 75067 $212,000 1,273 sq. ft. 4,356 sq. ft. $167
2018-10-13 Single Family Traditional 1869 Juniper Lane Lewisville, TX 75077 $190,000 1,565 sq. ft. 8,276 sq. ft. $121
2018-10-12 Single Family Traditional 436 Broken Sword Drive Lewisville, TX 75056 $525,000 3,675 sq. ft. 10,019 sq. ft. $143
2018-10-12 Single Family Traditional 2034 San Marino Lane Lewisville, TX 75077 $350,000 2,270 sq. ft. 5,663 sq. ft. $154
2018-10-11 Single Family Traditional 2328 Maidens Castle Drive Lewisville, TX 75056 $694,900 4,273 sq. ft. 13,068 sq. ft. $163
2018-10-11 Single Family Traditional 725 Blue Oak Drive Lewisville, TX 75067 $250,000 1,565 sq. ft. 7,405 sq. ft. $160
2018-10-10 Single Family Traditional 1518 Waterford Drive Lewisville, TX 75077 $247,500 1,600 sq. ft. 7,841 sq. ft. $155
2018-10-10 Single Family Traditional 1424 Ridgecreek Drive Lewisville, TX 75067 $249,900 1,521 sq. ft. 5,227 sq. ft. $164
2018-10-09 Single Family Traditional 672 Hobie Point Drive Lewisville, TX 75056 $350,000 2,648 sq. ft. 5,663 sq. ft. $132
2018-10-09 Single Family Traditional; Tudor 2629 Hundred Knights Drive Lewisville, TX 75056 $470,000 2,861 sq. ft. 4,356 sq. ft. $164
2018-10-09 Single Family 729 Red Wing Drive Lewisville, TX 75067 $375,000 2,580 sq. ft. 8,276 sq. ft. $145
2018-10-08 Single Family Traditional 905 Birkshire Drive Lewisville, TX 75077 $275,000 2,793 sq. ft. 6,970 sq. ft. $98
2018-10-06 Single Family Traditional 2032 Camelot Drive Lewisville, TX 75067 $325,000 2,905 sq. ft. 7,841 sq. ft. $112
2018-10-05 Single Family Traditional 1021 Villas Lewisville, TX 75067 $390,548 2,675 sq. ft. 7,405 sq. ft. $146
2018-10-05 Single Family Traditional 1019 Villas Lewisville, TX 75067 $385,292 2,819 sq. ft. 5,663 sq. ft. $137
2018-10-05 Single Family Traditional 1017 Villas Lewisville, TX 75067 $387,496 3,030 sq. ft. 5,663 sq. ft. $128
2018-10-05 Single Family 1169 Christopher Lane Lewisville, TX 75077 $272,500 1,942 sq. ft. 6,098 sq. ft. $140
2018-10-05 Single Family Traditional 1014 Villas Lewisville, TX 75067 $356,172 2,435 sq. ft. 5,663 sq. ft. $146
2018-10-05 Single Family Traditional 1529 Waterford Drive Lewisville, TX 75077 $290,000 1,983 sq. ft. 7,841 sq. ft. $146
2018-10-05 Single Family Traditional 765 Juniper Lane Lewisville, TX 75077 $274,900 2,326 sq. ft. 10,019 sq. ft. $118
2018-10-05 Single Family 182 Kielder Drive Lewisville, TX 75067 $285,000 2,019 sq. ft. 4,356 sq. ft. $141
2018-10-04 Single Family Traditional 748 Clear Water Drive Lewisville, TX 75056 $419,000 3,283 sq. ft. 8,712 sq. ft. $128
2018-10-04 Single Family Traditional 505 Hampton Court Lewisville, TX 75056 $450,000 2,780 sq. ft. 7,405 sq. ft. $162
2018-10-04 Single Family Traditional 2735 Safe Harbor Drive Lewisville, TX 75056 $419,500 3,884 sq. ft. 9,583 sq. ft. $108
2018-10-04 Single Family Traditional 1700 Yosemite Drive Lewisville, TX 75077 $310,000 2,854 sq. ft. 6,970 sq. ft. $109
2018-10-04 Single Family Traditional 2620 King Arthur Boulevard Lewisville, TX 75056 $849,900 5,683 sq. ft. 18,295 sq. ft. $150
2018-10-03 Single Family 1445 Berne Lane Lewisville, TX 75067 $275,000 2,047 sq. ft. 8,276 sq. ft. $134
2018-10-03 Single Family Traditional 720 Sweetbriar Drive Lewisville, TX 75067 $210,000 1,506 sq. ft. 6,970 sq. ft. $139
2018-10-03 Single Family Traditional 2063 Sienna Trail Lewisville, TX 75067 $235,000 1,678 sq. ft. 5,227 sq. ft. $140
2018-10-03 Single Family Traditional 2402 Long Meadow Way Lewisville, TX 75056 $468,000 3,012 sq. ft. 5,663 sq. ft. $155
2018-10-03 Single Family Traditional 2404 Long Meadow Way Lewisville, TX 75056 $415,000 2,167 sq. ft. 5,663 sq. ft. $192
2018-10-03 Single Family Traditional 2394 Long Meadow Way Lewisville, TX 75056 $480,314 3,012 sq. ft. 5,663 sq. ft. $159
2018-10-03 Single Family Traditional 2400 Long Meadow Way Lewisville, TX 75056 $487,939 3,259 sq. ft. 5,663 sq. ft. $150
2018-10-03 Single Family Traditional 208 Cowan Avenue Lewisville, TX 75057 $200,000 1,468 sq. ft. 12,632 sq. ft. $136
2018-10-02 Single Family Traditional 824 Oxford Court Lewisville, TX 75056 $390,000 2,728 sq. ft. 9,148 sq. ft. $143
2018-10-02 Single Family Traditional 1317 Iris Lane Lewisville, TX 75067 $235,000 1,822 sq. ft. 6,970 sq. ft. $129
2018-10-01 Single Family Traditional 932 Royal Minister Boulevard Lewisville, TX 75056 $479,900 2,869 sq. ft. 4,356 sq. ft. $167
2018-09-29 Single Family Traditional 105 Chelsea Court Lewisville, TX 75067 $349,990 2,102 sq. ft. 5,227 sq. ft. $166
2018-09-28 Single Family Traditional 1460 Bristol Lane Lewisville, TX 75077 $315,000 2,698 sq. ft. 3,920 sq. ft. $117
2018-09-27 Single Family Traditional 2057 Whispering Cove Lewisville, TX 75067 $305,000 2,062 sq. ft. 7,841 sq. ft. $148
2018-09-27 Single Family 528 Barfknecht Lane Lewisville, TX 75056 $215,000 2,222 sq. ft. 10,019 sq. ft. $97
2018-09-27 Single Family Traditional 917 Birkshire Drive Lewisville, TX 75077 $235,000 1,777 sq. ft. 6,534 sq. ft. $132
2018-09-26 Single Family Traditional 1313 Summertime Trail Lewisville, TX 75067 $255,000 2,141 sq. ft. 6,970 sq. ft. $119
2018-09-26 Single Family Traditional 1668 Castle Rock Drive Lewisville, TX 75077 $289,000 2,854 sq. ft. 6,098 sq. ft. $101
2018-09-25 Single Family Traditional 409 Adventurous Shield Drive Lewisville, TX 75056 $423,500 2,528 sq. ft. 4,792 sq. ft. $168
2018-09-24 Single Family Ranch 705 Walnut Drive Lewisville, TX 75067 $279,900 1,953 sq. ft. 8,276 sq. ft. $143
2018-09-24 Single Family Traditional 1535 Gunnison Trail Lewisville, TX 75077 $290,000 2,004 sq. ft. 7,841 sq. ft. $145
2018-09-22 Single Family Traditional 2045 Wanderlust Drive Lewisville, TX 75067 $259,000 1,712 sq. ft. 5,663 sq. ft. $151
2018-09-22 Single Family 636 Rolling Ridge Drive Lewisville, TX 75067 $168,000 1,012 sq. ft. 6,970 sq. ft. $166
2018-09-21 Single Family Traditional 2720 Seven Shields Lane Lewisville, TX 75056 $990,000 4,862 sq. ft. 13,939 sq. ft. $204
2018-09-21 Single Family Traditional 1224 Prairie Lake Path Lewisville, TX 75056 $465,000 3,510 sq. ft. 6,098 sq. ft. $132
2018-09-21 Single Family Traditional 1317 Prairie Lake Path Lewisville, TX 75056 $384,000 2,064 sq. ft. 6,098 sq. ft. $186
2018-09-21 Single Family Traditional 1304 Prairie Lake Path Lewisville, TX 75056 $380,000 2,064 sq. ft. 6,098 sq. ft. $184
2018-09-21 Single Family Traditional 1220 Prairie Lake Path Lewisville, TX 75056 $442,000 3,000 sq. ft. 5,663 sq. ft. $147
2018-09-21 Single Family Traditional 1204 Lake Falls Terrace Lewisville, TX 75056 $395,000 2,146 sq. ft. 5,663 sq. ft. $184
2018-09-21 Single Family Traditional 2553 Jackson Drive Lewisville, TX 75067 $295,000 1,965 sq. ft. 3,920 sq. ft. $150
2018-09-19 Single Family 1252 Grove Drive Lewisville, TX 75077 $269,900 2,005 sq. ft. 10,454 sq. ft. $135
2018-09-17 Single Family Traditional 1358 Daffodil Lane Lewisville, TX 75077 $218,000 1,480 sq. ft. 5,663 sq. ft. $147
2018-09-17 Single Family Traditional 1321 Prairie Lake Court Lewisville, TX 75010 $459,990 2,978 sq. ft. 6,970 sq. ft. $154
2018-09-17 Single Family Traditional 1300 Lake Falls Terrace Lewisville, TX 75010 $449,990 2,627 sq. ft. $171
2018-09-14 Single Family 1471 Cambridge Drive Lewisville, TX 75077 $269,900 2,081 sq. ft. 3,920 sq. ft. $130
2018-09-14 Single Family 1212 Lake Falls Terrace Lewisville, TX 75056 $498,490 3,281 sq. ft. 6,534 sq. ft. $152
2018-09-14 Single Family 1316 Lake Falls Terrace Lewisville, TX 75056 $409,810 2,165 sq. ft. 6,098 sq. ft. $189
2018-09-14 Single Family Traditional 2254 Magic Mantle Drive Lewisville, TX 75056 $700,000 4,110 sq. ft. 8,276 sq. ft. $170
2018-09-13 Single Family Traditional 1213 Sir Malory Lane Lewisville, TX 75056 $475,000 3,159 sq. ft. 12,632 sq. ft. $150
2018-09-13 Single Family Spanish 1462 Applegate Drive Lewisville, TX 75067 $214,900 1,862 sq. ft. 8,276 sq. ft. $115
2018-09-13 Single Family Traditional 2840 Merlins Rock Lane Lewisville, TX 75056 $1,124,900 5,409 sq. ft. 17,424 sq. ft. $208
2018-09-13 Single Family Traditional 2070 Vista Drive Lewisville, TX 75067 $289,900 2,263 sq. ft. 7,405 sq. ft. $128
2018-09-12 Single Family Traditional 812 Royal Minister Boulevard Lewisville, TX 75056 $564,900 3,272 sq. ft. 4,792 sq. ft. $173
2018-09-11 Single Family Traditional 2050 Biscayne Drive Lewisville, TX 75067 $350,000 2,634 sq. ft. 7,841 sq. ft. $133
2018-09-10 Single Family 1320 Pelham Lane Lewisville, TX 75077 $298,000 2,069 sq. ft. 6,970 sq. ft. $144
2018-09-10 Single Family Traditional 472 Valley View Drive Lewisville, TX 75067 $282,500 1,923 sq. ft. 6,098 sq. ft. $147
2018-09-10 Single Family 1507 Chisolm Trail Lewisville, TX 75077 $274,900 1,955 sq. ft. 9,583 sq. ft. $141
2018-09-08 Single Family Traditional 171 Campbell Drive Lewisville, TX 75057 $425,000 3,797 sq. ft. 16,117 sq. ft. $112
2018-09-08 Single Family Traditional 804 Salem Trail Lewisville, TX 75067 $245,000 1,794 sq. ft. 13,939 sq. ft. $137
2018-09-07 Single Family 2798 Veritas Ridge Drive Lewisville, TX 75067 $445,380 3,200 sq. ft. 6,970 sq. ft. $139
2018-09-07 Single Family 215 Village Way Lewisville, TX 75057 $339,500 1,892 sq. ft. $179
2018-09-07 Single Family Traditional 1822 Tiburon Bend Lewisville, TX 75067 $250,000 1,800 sq. ft. 7,405 sq. ft. $139
2018-09-07 Single Family Traditional 2712 Point Vista Drive Lewisville, TX 75067 $435,000 2,908 sq. ft. 6,098 sq. ft. $150
2018-09-06 Single Family Traditional 655 Glenhill Lane Lewisville, TX 75077 $225,000 1,585 sq. ft. 10,019 sq. ft. $142
2018-09-06 Single Family Traditional 2701 Sir Lancelot Boulevard Lewisville, TX 75056 $674,900 4,546 sq. ft. 11,326 sq. ft. $148
2018-09-04 Single Family Traditional 3302 Brookglen Drive Lewisville, TX 75056 $465,000 3,012 sq. ft. 8,276 sq. ft. $154
2018-09-01 Single Family 1409 Chinaberry Drive Lewisville, TX 75077 $315,000 2,718 sq. ft. 4,792 sq. ft. $116
2018-08-31 Single Family Traditional 1337 Summertime Trail Lewisville, TX 75067 $314,900 2,211 sq. ft. 8,276 sq. ft. $142
2018-08-30 Single Family Traditional 908 Royal Minister Boulevard Lewisville, TX 75056 $494,900 3,283 sq. ft. 4,792 sq. ft. $151
2018-08-30 Single Family Traditional 1280 Mcmahan Drive Lewisville, TX 75077 $375,000 4,069 sq. ft. 6,534 sq. ft. $92
2018-08-29 Single Family Traditional 500 Adventurous Shield Drive Lewisville, TX 75056 $479,900 2,627 sq. ft. 4,356 sq. ft. $183
2018-08-28 Single Family Traditional 705 Mandalay Bay Drive Lewisville, TX 75056 $580,000 3,757 sq. ft. 16,988 sq. ft. $154
2018-08-27 Single Family Traditional 219 Stuart Street Lewisville, TX 75057 $125,000 572 sq. ft. 3,485 sq. ft. $219
2018-08-26 Single Family Traditional 542 Prairie Dell Street Lewisville, TX 75067 $194,900 1,469 sq. ft. 4,356 sq. ft. $133
2018-08-26 Single Family 260 Crestwood Circle Lewisville, TX 75067 $214,999 1,630 sq. ft. 16,117 sq. ft. $132
2018-08-24 Single Family Traditional 2014 Buffalo Bend Drive Lewisville, TX 75067 $320,000 2,664 sq. ft. 13,939 sq. ft. $120
2018-08-24 Single Family 101 Hanover Trail Lewisville, TX 75067 $364,850 1,691 sq. ft. 8,276 sq. ft. $216
2018-08-24 Single Family 103 Crimson Law Drive Lewisville, TX 75067 $389,420 2,210 sq. ft. 5,663 sq. ft. $176
2018-08-24 Single Family Traditional 2517 Case Castle Court Lewisville, TX 75056 $449,900 2,489 sq. ft. 4,792 sq. ft. $181
2018-08-23 Single Family Traditional 2622 Hundred Knights Drive Lewisville, TX 75056 $472,500 2,294 sq. ft. 4,792 sq. ft. $206
2018-08-22 Single Family Traditional 1700 Castle Rock Drive Lewisville, TX 75077 $269,900 2,296 sq. ft. 6,970 sq. ft. $118
2018-08-16 Single Family Traditional 1660 Yellowstone Avenue Lewisville, TX 75077 $260,000 1,856 sq. ft. 4,792 sq. ft. $140
2018-08-14 Single Family Traditional 1365 Chinaberry Drive Lewisville, TX 75077 $194,900 1,391 sq. ft. 3,920 sq. ft. $140
2018-08-14 Single Family Traditional 1709 Brookhollow Drive Lewisville, TX 75056 $500,000 3,518 sq. ft. 6,534 sq. ft. $142
2018-08-14 Single Family Traditional 1716 Brookhollow Drive Lewisville, TX 75056 $500,000 3,259 sq. ft. 6,534 sq. ft. $153
2018-08-14 Single Family Traditional 1711 Brookhollow Drive Lewisville, TX 75056 $485,000 3,259 sq. ft. 6,534 sq. ft. $149
2018-08-13 Single Family Traditional 313 Chester Drive Lewisville, TX 75056 $399,000 2,502 sq. ft. 4,792 sq. ft. $159
2018-08-10 Single Family Traditional 142 Shore Lewisville, TX 75057 $235,000 1,655 sq. ft. 5,663 sq. ft. $142
2018-08-10 Single Family Traditional 1025 Damsel Caroline Drive Lewisville, TX 75056 $449,000 3,414 sq. ft. 10,454 sq. ft. $132
2018-08-09 Single Family Traditional 1413 Mayflower Lane Lewisville, TX 75077 $259,000 2,119 sq. ft. 6,534 sq. ft. $122
2018-08-09 Single Family Traditional 1637 Valley Parkway Lewisville, TX 75077 $225,000 1,318 sq. ft. 8,276 sq. ft. $171
2018-08-07 Single Family 1212 Prairie Lake Path Lewisville, TX 75056 $393,990 2,210 sq. ft. 6,534 sq. ft. $178
2018-08-07 Single Family 3213 Ridgelake Way Lewisville, TX 75056 $415,560 2,165 sq. ft. 7,841 sq. ft. $192
2018-08-07 Single Family Traditional 2001 Firewater Place Lewisville, TX 75067 $295,000 2,670 sq. ft. 6,534 sq. ft. $110
2018-08-06 Single Family 758 Holly Oak Drive Lewisville, TX 75067 $263,000 2,128 sq. ft. 8,712 sq. ft. $124
2018-08-04 Single Family Traditional 926 Plantation Drive Lewisville, TX 75067 $259,786 1,750 sq. ft. 4,356 sq. ft. $148
2018-08-04 Single Family Traditional 714 Dewberry Drive Lewisville, TX 75067 $159,900 1,242 sq. ft. 7,841 sq. ft. $129
2018-08-03 Single Family Traditional 703 Oakbrook Drive Lewisville, TX 75057 $325,000 2,813 sq. ft. $116
2018-08-03 Single Family Traditional 1120 Damsel Ginger Lane Lewisville, TX 75056 $537,500 4,149 sq. ft. 11,326 sq. ft. $130
2018-08-02 Single Family Traditional 137 Westminster Drive Lewisville, TX 75056 $375,000 2,542 sq. ft. 6,098 sq. ft. $148
2018-08-02 Single Family 116 New Haven Lane Lewisville, TX 75067 $419,640 2,250 sq. ft. 6,098 sq. ft. $187
2018-08-02 Single Family Traditional 317 Chester Drive Lewisville, TX 75056 $399,999 2,783 sq. ft. 4,792 sq. ft. $144
2018-07-27 Single Family Traditional 1313 Colgate Drive Lewisville, TX 75077 $289,900 2,069 sq. ft. 6,970 sq. ft. $140
2018-07-26 Single Family 102 New Haven Lane Lewisville, TX 75067 $444,150 3,397 sq. ft. 9,583 sq. ft. $131
2018-07-25 Single Family Traditional 2612 Lady Viviane Lane Lewisville, TX 75056 $439,900 2,943 sq. ft. 4,792 sq. ft. $149
2018-07-24 Single Family Traditional 417 Dumas Court Lewisville, TX 75067 $300,000 2,654 sq. ft. 7,405 sq. ft. $113
2018-07-23 Single Family Traditional 533 Grail Castle Drive Lewisville, TX 75056 $464,500 2,465 sq. ft. 4,792 sq. ft. $188
2018-07-20 Single Family 2790 Ithaca Place Lewisville, TX 75067 $486,890 3,397 sq. ft. 10,890 sq. ft. $143
2018-07-20 Single Family Traditional 2517 Hundred Knights Drive Lewisville, TX 75056 $480,000 3,280 sq. ft. 4,792 sq. ft. $146
2018-07-19 Single Family 1370 Chinaberry Drive Lewisville, TX 75077 $220,000 1,438 sq. ft. 3,920 sq. ft. $153
2018-07-19 Single Family 1535 Barksdale Drive Lewisville, TX 75077 $319,000 2,709 sq. ft. 4,356 sq. ft. $118
2018-07-16 Single Family 1414 Ridgecreek Drive Lewisville, TX 75067 $270,000 1,899 sq. ft. 5,227 sq. ft. $142
2018-07-13 Single Family Traditional 2541 Dover Drive Lewisville, TX 75056 $436,900 3,389 sq. ft. 6,534 sq. ft. $129
2018-07-13 Single Family Traditional 617 Lake City Drive Lewisville, TX 75056 $325,000 1,969 sq. ft. 6,534 sq. ft. $165
2018-07-11 Single Family 1228 Prairie Lake Path Lewisville, TX 75056 $415,350 2,210 sq. ft. 6,098 sq. ft. $188
2018-07-11 Single Family Colonial; Traditional 1316 Bogard Lewisville, TX 75077 $332,000 3,088 sq. ft. $108
2018-07-10 Single Family Traditional 1224 Lake Falls Terrace Lewisville, TX 75010 $479,990 3,435 sq. ft. 6,534 sq. ft. $140
2018-07-09 Single Family Contemporary/Modern 2317 Prairie Wind Path Lewisville, TX 75056 $479,900 3,545 sq. ft. 5,663 sq. ft. $135
2018-07-06 Single Family Traditional 3008 Hereford Drive Lewisville, TX 75056 $410,000 2,961 sq. ft. 4,356 sq. ft. $138
2018-07-06 Single Family 1925 Silver Cloud Circle Lewisville, TX 75067 $364,000 3,119 sq. ft. 14,810 sq. ft. $117
2018-07-06 Single Family Mid-Century Modern 1030 The Lakes Boulevard Lewisville, TX 75056 $574,800 3,279 sq. ft. 4,792 sq. ft. $175
2018-07-03 Single Family Craftsman; Traditional 205 Village Way Lewisville, TX 75057 $339,900 1,892 sq. ft. 1,307 sq. ft. $180
2018-06-23 Single Family Traditional 2026 Sorrento Lane Lewisville, TX 75077 $329,900 2,026 sq. ft. 5,663 sq. ft. $163
2018-06-23 Single Family Traditional 2323 Wild Forest Circle Lewisville, TX 75056 $599,000 4,412 sq. ft. 10,890 sq. ft. $136
2018-06-23 Single Family 1712 Creekway Drive Lewisville, TX 75067 $295,000 2,508 sq. ft. 5,227 sq. ft. $118
2018-06-21 Single Family Traditional 596 Surf Street Lewisville, TX 75067 $215,000 1,668 sq. ft. 13,504 sq. ft. $129
2018-06-21 Single Family Traditional 2172 Brady Drive Lewisville, TX 75057 $299,999 2,864 sq. ft. 7,405 sq. ft. $105
2018-06-15 Single Family Traditional 2446 Sunderland Lane Lewisville, TX 75067 $329,500 3,023 sq. ft. 4,356 sq. ft. $109
2018-06-13 Single Family Traditional 1228 Lake Falls Terrace Lewisville, TX 75010 $469,990 3,039 sq. ft. 6,098 sq. ft. $155
2018-06-12 Single Family English; Traditional 2039 Camelot Drive Lewisville, TX 75067 $323,000 2,687 sq. ft. 6,098 sq. ft. $120
2018-06-07 Single Family Craftsman 203 Lanyard Drive Lewisville, TX 75057 $340,000 1,824 sq. ft. 1,307 sq. ft. $186
2018-06-07 Single Family Craftsman 207 Lanyard Drive Lewisville, TX 75057 $329,990 1,905 sq. ft. 1,307 sq. ft. $173
2018-06-01 Single Family 1342 Old Barn Lane Lewisville, TX 75067 $293,000 2,156 sq. ft. 7,405 sq. ft. $136
2018-05-23 Single Family Traditional 205 Ridgewood Drive Lewisville, TX 75067 $514,900 3,421 sq. ft. 7,841 sq. ft. $151
2018-05-12 Single Family Traditional 2337 Shoreham Circle Lewisville, TX 75056 $445,000 3,062 sq. ft. 8,276 sq. ft. $145
2018-05-12 Single Family 404 King Galloway Drive Lewisville, TX 75056 $404,900 2,958 sq. ft. 4,356 sq. ft. $137
2018-05-10 Single Family Traditional 136 Andrea Court Lewisville, TX 75067 $315,000 2,389 sq. ft. 6,534 sq. ft. $132
2018-03-02 Single Family Traditional 1003 Olivia Drive Lewisville, TX 75067 $489,000 3,742 sq. ft. 6,534 sq. ft. $131
2018-02-27 Single Family Traditional 134 Edna Avenue Lewisville, TX 75057 $350,000 1,277 sq. ft. 12,632 sq. ft. $274
2018-02-27 Single Family Lewisville, TX $115,000 1,798 sq. ft. 6,534 sq. ft. $64
2018-01-03 Single Family 209 Village Way Lewisville, TX 75057 $339,900 1,892 sq. ft. 1,307 sq. ft. $180
2016-10-06 Single Family Traditional 1333 Evergreen Drive Lewisville, TX 75067 $199,900 1,921 sq. ft. 7,841 sq. ft. $104
2015-09-25 Single Family Traditional 1137 Raleigh Drive Lewisville, TX 75077 $230,000 2,071 sq. ft. 6,970 sq. ft. $111